sensor_id;sensor_type;location;lat;lon;timestamp;P1;durP1;ratioP1;P2;durP2;ratioP2
68256;SDS011;55069;51.568;4.656;2023-05-02T00:01:49;61.87;;;32.00;;
68256;SDS011;55069;51.568;4.656;2023-05-02T00:04:15;61.85;;;31.15;;
68256;SDS011;55069;51.568;4.656;2023-05-02T00:06:41;57.90;;;29.90;;
68256;SDS011;55069;51.568;4.656;2023-05-02T00:09:07;63.80;;;31.53;;
68256;SDS011;55069;51.568;4.656;2023-05-02T00:11:33;71.85;;;31.58;;
68256;SDS011;55069;51.568;4.656;2023-05-02T00:13:58;65.43;;;30.90;;
68256;SDS011;55069;51.568;4.656;2023-05-02T00:16:24;68.90;;;31.58;;
68256;SDS011;55069;51.568;4.656;2023-05-02T00:18:50;65.03;;;30.43;;
68256;SDS011;55069;51.568;4.656;2023-05-02T00:21:15;65.97;;;31.77;;
68256;SDS011;55069;51.568;4.656;2023-05-02T00:23:41;65.07;;;30.50;;
68256;SDS011;55069;51.568;4.656;2023-05-02T00:26:07;66.13;;;30.40;;
68256;SDS011;55069;51.568;4.656;2023-05-02T00:28:35;66.05;;;30.48;;
68256;SDS011;55069;51.568;4.656;2023-05-02T00:31:03;64.65;;;29.65;;
68256;SDS011;55069;51.568;4.656;2023-05-02T00:33:29;66.20;;;30.15;;
68256;SDS011;55069;51.568;4.656;2023-05-02T00:35:54;58.13;;;28.60;;
68256;SDS011;55069;51.568;4.656;2023-05-02T00:38:20;63.70;;;28.50;;
68256;SDS011;55069;51.568;4.656;2023-05-02T00:40:46;60.63;;;28.60;;
68256;SDS011;55069;51.568;4.656;2023-05-02T00:43:14;58.38;;;28.58;;
68256;SDS011;55069;51.568;4.656;2023-05-02T00:45:41;58.93;;;27.23;;
68256;SDS011;55069;51.568;4.656;2023-05-02T00:48:13;53.10;;;27.77;;
68256;SDS011;55069;51.568;4.656;2023-05-02T00:50:40;51.92;;;26.23;;
68256;SDS011;55069;51.568;4.656;2023-05-02T00:53:07;55.17;;;29.10;;
68256;SDS011;55069;51.568;4.656;2023-05-02T00:55:33;50.87;;;26.70;;
68256;SDS011;55069;51.568;4.656;2023-05-02T00:58:01;50.70;;;26.88;;
68256;SDS011;55069;51.568;4.656;2023-05-02T01:00:37;44.85;;;24.75;;
68256;SDS011;55069;51.568;4.656;2023-05-02T01:03:09;54.78;;;26.50;;
68256;SDS011;55069;51.568;4.656;2023-05-02T01:05:48;46.95;;;24.80;;
68256;SDS011;55069;51.568;4.656;2023-05-02T01:08:39;57.00;;;26.77;;
68256;SDS011;55069;51.568;4.656;2023-05-02T01:11:16;49.45;;;26.45;;
68256;SDS011;55069;51.568;4.656;2023-05-02T01:13:55;51.75;;;27.17;;
68256;SDS011;55069;51.568;4.656;2023-05-02T01:16:23;54.03;;;27.17;;
68256;SDS011;55069;51.568;4.656;2023-05-02T01:18:50;52.15;;;27.02;;
68256;SDS011;55069;51.568;4.656;2023-05-02T01:21:16;49.83;;;27.30;;
68256;SDS011;55069;51.568;4.656;2023-05-02T01:28:59;46.80;;;25.23;;
68256;SDS011;55069;51.568;4.656;2023-05-02T01:31:37;50.92;;;27.15;;
68256;SDS011;55069;51.568;4.656;2023-05-02T01:34:07;60.00;;;27.97;;
68256;SDS011;55069;51.568;4.656;2023-05-02T01:36:35;51.63;;;26.63;;
68256;SDS011;55069;51.568;4.656;2023-05-02T01:39:03;56.72;;;27.00;;
68256;SDS011;55069;51.568;4.656;2023-05-02T01:41:31;56.17;;;27.08;;
68256;SDS011;55069;51.568;4.656;2023-05-02T01:44:02;50.90;;;27.77;;
68256;SDS011;55069;51.568;4.656;2023-05-02T01:46:30;54.77;;;27.33;;
68256;SDS011;55069;51.568;4.656;2023-05-02T01:49:02;56.35;;;28.70;;
68256;SDS011;55069;51.568;4.656;2023-05-02T01:51:31;56.55;;;29.13;;
68256;SDS011;55069;51.568;4.656;2023-05-02T01:54:00;56.28;;;28.05;;
68256;SDS011;55069;51.568;4.656;2023-05-02T01:56:28;55.70;;;27.70;;
68256;SDS011;55069;51.568;4.656;2023-05-02T01:58:57;54.03;;;26.90;;
68256;SDS011;55069;51.568;4.656;2023-05-02T02:01:24;49.28;;;27.35;;
68256;SDS011;55069;51.568;4.656;2023-05-02T02:03:55;49.53;;;26.35;;
68256;SDS011;55069;51.568;4.656;2023-05-02T02:06:23;44.33;;;24.35;;
68256;SDS011;55069;51.568;4.656;2023-05-02T02:08:49;40.05;;;22.90;;
68256;SDS011;55069;51.568;4.656;2023-05-02T02:11:16;38.87;;;20.40;;
68256;SDS011;55069;51.568;4.656;2023-05-02T02:13:52;32.10;;;19.00;;
68256;SDS011;55069;51.568;4.656;2023-05-02T02:16:27;28.17;;;15.75;;
68256;SDS011;55069;51.568;4.656;2023-05-02T02:18:55;22.95;;;13.65;;
68256;SDS011;55069;51.568;4.656;2023-05-02T02:21:23;26.45;;;15.88;;
68256;SDS011;55069;51.568;4.656;2023-05-02T02:23:53;20.03;;;13.07;;
68256;SDS011;55069;51.568;4.656;2023-05-02T02:26:22;23.70;;;12.05;;
68256;SDS011;55069;51.568;4.656;2023-05-02T02:28:47;21.50;;;12.85;;
68256;SDS011;55069;51.568;4.656;2023-05-02T02:31:13;23.47;;;12.43;;
68256;SDS011;55069;51.568;4.656;2023-05-02T02:33:39;25.00;;;15.20;;
68256;SDS011;55069;51.568;4.656;2023-05-02T02:36:13;26.20;;;15.57;;
68256;SDS011;55069;51.568;4.656;2023-05-02T02:38:45;30.95;;;17.35;;
68256;SDS011;55069;51.568;4.656;2023-05-02T02:41:15;32.13;;;17.67;;
68256;SDS011;55069;51.568;4.656;2023-05-02T02:43:57;34.75;;;18.80;;
68256;SDS011;55069;51.568;4.656;2023-05-02T02:52:59;24.48;;;13.75;;
68256;SDS011;55069;51.568;4.656;2023-05-02T02:55:05;23.02;;;12.10;;
68256;SDS011;55069;51.568;4.656;2023-05-02T02:57:42;23.73;;;10.00;;
68256;SDS011;55069;51.568;4.656;2023-05-02T03:00:19;19.10;;;7.88;;
68256;SDS011;55069;51.568;4.656;2023-05-02T03:02:46;12.30;;;5.67;;
68256;SDS011;55069;51.568;4.656;2023-05-02T03:05:12;10.65;;;6.10;;
68256;SDS011;55069;51.568;4.656;2023-05-02T03:07:39;17.30;;;5.40;;
68256;SDS011;55069;51.568;4.656;2023-05-02T03:10:05;17.17;;;5.57;;
68256;SDS011;55069;51.568;4.656;2023-05-02T03:12:33;13.73;;;4.90;;
68256;SDS011;55069;51.568;4.656;2023-05-02T03:17:56;12.73;;;5.25;;
68256;SDS011;55069;51.568;4.656;2023-05-02T03:20:22;13.18;;;4.68;;
68256;SDS011;55069;51.568;4.656;2023-05-02T03:22:48;10.40;;;4.23;;
68256;SDS011;55069;51.568;4.656;2023-05-02T03:25:13;11.52;;;4.38;;
68256;SDS011;55069;51.568;4.656;2023-05-02T03:27:44;11.60;;;4.90;;
68256;SDS011;55069;51.568;4.656;2023-05-02T03:30:10;13.57;;;4.73;;
68256;SDS011;55069;51.568;4.656;2023-05-02T03:32:36;12.68;;;4.28;;
68256;SDS011;55069;51.568;4.656;2023-05-02T03:35:01;10.43;;;4.20;;
68256;SDS011;55069;51.568;4.656;2023-05-02T03:37:34;15.40;;;4.88;;
68256;SDS011;55069;51.568;4.656;2023-05-02T03:40:00;13.90;;;4.77;;
68256;SDS011;55069;51.568;4.656;2023-05-02T03:42:25;12.30;;;4.82;;
68256;SDS011;55069;51.568;4.656;2023-05-02T03:44:52;12.73;;;4.50;;
68256;SDS011;55069;51.568;4.656;2023-05-02T03:47:18;15.50;;;4.45;;
68256;SDS011;55069;51.568;4.656;2023-05-02T03:49:44;19.88;;;4.57;;
68256;SDS011;55069;51.568;4.656;2023-05-02T03:52:12;12.20;;;4.30;;
68256;SDS011;55069;51.568;4.656;2023-05-02T03:54:38;12.70;;;3.72;;
68256;SDS011;55069;51.568;4.656;2023-05-02T03:57:04;9.40;;;3.57;;
68256;SDS011;55069;51.568;4.656;2023-05-02T03:59:31;12.95;;;3.22;;
68256;SDS011;55069;51.568;4.656;2023-05-02T04:02:01;13.68;;;3.25;;
68256;SDS011;55069;51.568;4.656;2023-05-02T04:04:39;11.57;;;3.50;;
68256;SDS011;55069;51.568;4.656;2023-05-02T04:07:07;16.25;;;3.53;;
68256;SDS011;55069;51.568;4.656;2023-05-02T04:09:34;11.15;;;3.75;;
68256;SDS011;55069;51.568;4.656;2023-05-02T04:12:09;16.20;;;3.92;;
68256;SDS011;55069;51.568;4.656;2023-05-02T04:14:38;7.03;;;2.58;;
68256;SDS011;55069;51.568;4.656;2023-05-02T04:17:04;8.67;;;2.80;;
68256;SDS011;55069;51.568;4.656;2023-05-02T04:19:38;11.98;;;3.00;;
68256;SDS011;55069;51.568;4.656;2023-05-02T04:22:04;8.47;;;2.70;;
68256;SDS011;55069;51.568;4.656;2023-05-02T04:24:33;8.93;;;2.50;;
68256;SDS011;55069;51.568;4.656;2023-05-02T04:26:59;9.70;;;2.40;;
68256;SDS011;55069;51.568;4.656;2023-05-02T04:29:26;10.55;;;2.38;;
68256;SDS011;55069;51.568;4.656;2023-05-02T04:31:52;11.90;;;1.92;;
68256;SDS011;55069;51.568;4.656;2023-05-02T04:34:20;10.93;;;2.17;;
68256;SDS011;55069;51.568;4.656;2023-05-02T04:36:46;10.43;;;2.20;;
68256;SDS011;55069;51.568;4.656;2023-05-02T04:39:16;16.38;;;1.92;;
68256;SDS011;55069;51.568;4.656;2023-05-02T04:41:53;8.57;;;2.00;;
68256;SDS011;55069;51.568;4.656;2023-05-02T04:44:20;8.43;;;1.80;;
68256;SDS011;55069;51.568;4.656;2023-05-02T04:46:46;8.65;;;2.15;;
68256;SDS011;55069;51.568;4.656;2023-05-02T04:49:12;12.23;;;1.83;;
68256;SDS011;55069;51.568;4.656;2023-05-02T04:51:38;6.73;;;1.90;;
68256;SDS011;55069;51.568;4.656;2023-05-02T04:54:03;6.93;;;1.70;;
68256;SDS011;55069;51.568;4.656;2023-05-02T04:56:29;6.50;;;1.63;;
68256;SDS011;55069;51.568;4.656;2023-05-02T04:58:55;5.77;;;1.97;;
68256;SDS011;55069;51.568;4.656;2023-05-02T05:01:21;5.57;;;1.70;;
68256;SDS011;55069;51.568;4.656;2023-05-02T05:03:49;12.83;;;1.83;;
68256;SDS011;55069;51.568;4.656;2023-05-02T05:06:16;4.38;;;1.52;;
68256;SDS011;55069;51.568;4.656;2023-05-02T05:08:44;6.55;;;1.50;;
68256;SDS011;55069;51.568;4.656;2023-05-02T05:11:11;8.20;;;1.75;;
68256;SDS011;55069;51.568;4.656;2023-05-02T05:13:38;9.55;;;1.70;;
68256;SDS011;55069;51.568;4.656;2023-05-02T05:16:05;7.33;;;1.90;;
68256;SDS011;55069;51.568;4.656;2023-05-02T05:18:32;5.80;;;1.75;;
68256;SDS011;55069;51.568;4.656;2023-05-02T05:21:06;8.70;;;1.80;;
68256;SDS011;55069;51.568;4.656;2023-05-02T05:23:32;5.68;;;1.30;;
68256;SDS011;55069;51.568;4.656;2023-05-02T05:26:11;9.52;;;2.03;;
68256;SDS011;55069;51.568;4.656;2023-05-02T05:28:42;8.53;;;1.50;;
68256;SDS011;55069;51.568;4.656;2023-05-02T05:31:09;7.32;;;1.50;;
68256;SDS011;55069;51.568;4.656;2023-05-02T05:33:37;7.78;;;1.50;;
68256;SDS011;55069;51.568;4.656;2023-05-02T05:38:34;4.15;;;1.30;;
68256;SDS011;55069;51.568;4.656;2023-05-02T05:41:02;9.67;;;1.47;;
68256;SDS011;55069;51.568;4.656;2023-05-02T05:43:30;7.10;;;1.15;;
68256;SDS011;55069;51.568;4.656;2023-05-02T05:45:57;6.45;;;1.35;;
68256;SDS011;55069;51.568;4.656;2023-05-02T05:48:23;6.50;;;1.83;;
68256;SDS011;55069;51.568;4.656;2023-05-02T05:50:49;7.55;;;1.75;;
68256;SDS011;55069;51.568;4.656;2023-05-02T05:53:16;6.63;;;1.67;;
68256;SDS011;55069;51.568;4.656;2023-05-02T05:55:44;4.22;;;1.70;;
68256;SDS011;55069;51.568;4.656;2023-05-02T05:58:10;8.37;;;1.60;;
68256;SDS011;55069;51.568;4.656;2023-05-02T06:00:37;11.32;;;2.00;;
68256;SDS011;55069;51.568;4.656;2023-05-02T06:03:04;8.25;;;2.35;;
68256;SDS011;55069;51.568;4.656;2023-05-02T06:05:31;8.82;;;1.90;;
68256;SDS011;55069;51.568;4.656;2023-05-02T06:07:57;7.10;;;1.87;;
68256;SDS011;55069;51.568;4.656;2023-05-02T06:10:23;13.88;;;1.88;;
68256;SDS011;55069;51.568;4.656;2023-05-02T06:12:49;9.63;;;1.83;;
68256;SDS011;55069;51.568;4.656;2023-05-02T06:15:18;5.45;;;1.83;;
68256;SDS011;55069;51.568;4.656;2023-05-02T06:17:44;4.97;;;1.52;;
68256;SDS011;55069;51.568;4.656;2023-05-02T06:20:10;10.25;;;2.10;;
68256;SDS011;55069;51.568;4.656;2023-05-02T06:22:36;5.13;;;1.60;;
68256;SDS011;55069;51.568;4.656;2023-05-02T06:25:03;7.30;;;1.77;;
68256;SDS011;55069;51.568;4.656;2023-05-02T06:27:30;10.02;;;2.00;;
68256;SDS011;55069;51.568;4.656;2023-05-02T06:29:56;8.73;;;1.83;;
68256;SDS011;55069;51.568;4.656;2023-05-02T06:32:21;7.15;;;1.70;;
68256;SDS011;55069;51.568;4.656;2023-05-02T06:34:47;9.10;;;1.70;;
68256;SDS011;55069;51.568;4.656;2023-05-02T06:37:12;9.93;;;1.70;;
68256;SDS011;55069;51.568;4.656;2023-05-02T06:39:38;8.07;;;2.20;;
68256;SDS011;55069;51.568;4.656;2023-05-02T06:42:04;9.50;;;1.70;;
68256;SDS011;55069;51.568;4.656;2023-05-02T06:44:31;6.68;;;1.92;;
68256;SDS011;55069;51.568;4.656;2023-05-02T06:46:57;13.77;;;2.40;;
68256;SDS011;55069;51.568;4.656;2023-05-02T06:49:23;11.27;;;2.10;;
68256;SDS011;55069;51.568;4.656;2023-05-02T06:51:48;8.93;;;1.63;;
68256;SDS011;55069;51.568;4.656;2023-05-02T06:54:14;13.10;;;2.22;;
68256;SDS011;55069;51.568;4.656;2023-05-02T06:56:40;9.65;;;1.73;;
68256;SDS011;55069;51.568;4.656;2023-05-02T06:59:07;9.73;;;1.50;;
68256;SDS011;55069;51.568;4.656;2023-05-02T07:01:33;7.15;;;1.98;;
68256;SDS011;55069;51.568;4.656;2023-05-02T07:03:59;7.28;;;1.45;;
68256;SDS011;55069;51.568;4.656;2023-05-02T07:06:25;9.23;;;1.87;;
68256;SDS011;55069;51.568;4.656;2023-05-02T07:08:52;6.75;;;1.67;;
68256;SDS011;55069;51.568;4.656;2023-05-02T07:11:17;5.57;;;1.58;;
68256;SDS011;55069;51.568;4.656;2023-05-02T07:13:43;8.87;;;2.13;;
68256;SDS011;55069;51.568;4.656;2023-05-02T07:16:09;16.00;;;2.17;;
68256;SDS011;55069;51.568;4.656;2023-05-02T07:18:34;9.63;;;1.47;;
68256;SDS011;55069;51.568;4.656;2023-05-02T07:21:00;6.88;;;1.98;;
68256;SDS011;55069;51.568;4.656;2023-05-02T07:23:26;6.63;;;1.60;;
68256;SDS011;55069;51.568;4.656;2023-05-02T07:25:52;6.85;;;1.52;;
68256;SDS011;55069;51.568;4.656;2023-05-02T07:28:18;10.45;;;1.70;;
68256;SDS011;55069;51.568;4.656;2023-05-02T07:30:43;9.17;;;2.20;;
68256;SDS011;55069;51.568;4.656;2023-05-02T07:33:09;4.40;;;1.77;;
68256;SDS011;55069;51.568;4.656;2023-05-02T07:35:35;9.10;;;2.03;;
68256;SDS011;55069;51.568;4.656;2023-05-02T07:38:01;4.93;;;1.85;;
68256;SDS011;55069;51.568;4.656;2023-05-02T07:40:27;9.30;;;2.40;;
68256;SDS011;55069;51.568;4.656;2023-05-02T07:42:52;7.70;;;2.17;;
68256;SDS011;55069;51.568;4.656;2023-05-02T07:45:18;10.10;;;1.90;;
68256;SDS011;55069;51.568;4.656;2023-05-02T07:47:44;13.07;;;1.70;;
68256;SDS011;55069;51.568;4.656;2023-05-02T07:50:11;9.67;;;1.73;;
68256;SDS011;55069;51.568;4.656;2023-05-02T07:52:37;8.85;;;2.15;;
68256;SDS011;55069;51.568;4.656;2023-05-02T07:55:02;11.93;;;2.00;;
68256;SDS011;55069;51.568;4.656;2023-05-02T07:57:28;9.98;;;1.95;;
68256;SDS011;55069;51.568;4.656;2023-05-02T07:59:54;9.13;;;2.50;;
68256;SDS011;55069;51.568;4.656;2023-05-02T08:02:21;9.27;;;1.92;;
68256;SDS011;55069;51.568;4.656;2023-05-02T08:04:48;5.07;;;1.48;;
68256;SDS011;55069;51.568;4.656;2023-05-02T08:07:14;10.27;;;2.15;;
68256;SDS011;55069;51.568;4.656;2023-05-02T08:09:39;7.23;;;2.10;;
68256;SDS011;55069;51.568;4.656;2023-05-02T08:12:05;5.07;;;1.58;;
68256;SDS011;55069;51.568;4.656;2023-05-02T08:14:31;10.63;;;1.90;;
68256;SDS011;55069;51.568;4.656;2023-05-02T08:16:57;8.88;;;1.80;;
68256;SDS011;55069;51.568;4.656;2023-05-02T08:19:23;8.50;;;2.00;;
68256;SDS011;55069;51.568;4.656;2023-05-02T08:21:49;4.95;;;1.77;;
68256;SDS011;55069;51.568;4.656;2023-05-02T08:24:15;7.03;;;1.98;;
68256;SDS011;55069;51.568;4.656;2023-05-02T08:26:41;9.10;;;2.33;;
68256;SDS011;55069;51.568;4.656;2023-05-02T08:29:06;8.57;;;2.25;;
68256;SDS011;55069;51.568;4.656;2023-05-02T08:31:32;13.27;;;2.60;;
68256;SDS011;55069;51.568;4.656;2023-05-02T08:33:58;12.05;;;2.05;;
68256;SDS011;55069;51.568;4.656;2023-05-02T08:36:24;6.77;;;1.97;;
68256;SDS011;55069;51.568;4.656;2023-05-02T08:38:52;11.80;;;2.17;;
68256;SDS011;55069;51.568;4.656;2023-05-02T08:41:18;12.57;;;2.40;;
68256;SDS011;55069;51.568;4.656;2023-05-02T08:43:45;10.90;;;2.00;;
68256;SDS011;55069;51.568;4.656;2023-05-02T08:46:11;6.68;;;1.58;;
68256;SDS011;55069;51.568;4.656;2023-05-02T08:48:39;5.70;;;2.00;;
68256;SDS011;55069;51.568;4.656;2023-05-02T08:51:10;7.65;;;1.60;;
68256;SDS011;55069;51.568;4.656;2023-05-02T08:53:38;8.30;;;1.45;;
68256;SDS011;55069;51.568;4.656;2023-05-02T08:56:08;11.43;;;2.10;;
68256;SDS011;55069;51.568;4.656;2023-05-02T08:58:38;10.45;;;1.85;;
68256;SDS011;55069;51.568;4.656;2023-05-02T09:01:14;5.50;;;1.35;;
68256;SDS011;55069;51.568;4.656;2023-05-02T09:03:42;9.63;;;1.70;;
68256;SDS011;55069;51.568;4.656;2023-05-02T09:08:37;3.80;;;1.20;;
68256;SDS011;55069;51.568;4.656;2023-05-02T09:11:05;5.90;;;1.50;;
68256;SDS011;55069;51.568;4.656;2023-05-02T09:16:09;6.80;;;2.05;;
68256;SDS011;55069;51.568;4.656;2023-05-02T09:18:36;8.23;;;1.45;;
68256;SDS011;55069;51.568;4.656;2023-05-02T09:21:05;6.73;;;2.10;;
68256;SDS011;55069;51.568;4.656;2023-05-02T09:26:00;12.25;;;2.35;;
68256;SDS011;55069;51.568;4.656;2023-05-02T09:31:11;10.43;;;2.23;;
68256;SDS011;55069;51.568;4.656;2023-05-02T09:33:40;10.48;;;2.40;;
68256;SDS011;55069;51.568;4.656;2023-05-02T09:36:07;9.68;;;2.17;;
68256;SDS011;55069;51.568;4.656;2023-05-02T09:38:36;8.55;;;2.30;;
68256;SDS011;55069;51.568;4.656;2023-05-02T09:41:03;9.53;;;1.90;;
68256;SDS011;55069;51.568;4.656;2023-05-02T09:43:32;8.32;;;2.35;;
68256;SDS011;55069;51.568;4.656;2023-05-02T09:46:05;7.90;;;2.22;;
68256;SDS011;55069;51.568;4.656;2023-05-02T09:48:51;10.35;;;2.40;;
68256;SDS011;55069;51.568;4.656;2023-05-02T09:51:21;7.32;;;2.03;;
68256;SDS011;55069;51.568;4.656;2023-05-02T09:53:48;5.73;;;1.80;;
68256;SDS011;55069;51.568;4.656;2023-05-02T09:56:14;8.15;;;2.30;;
68256;SDS011;55069;51.568;4.656;2023-05-02T09:58:41;9.85;;;2.10;;
68256;SDS011;55069;51.568;4.656;2023-05-02T10:01:06;9.07;;;1.97;;
68256;SDS011;55069;51.568;4.656;2023-05-02T10:03:36;8.05;;;1.92;;
68256;SDS011;55069;51.568;4.656;2023-05-02T10:06:05;6.38;;;2.05;;
68256;SDS011;55069;51.568;4.656;2023-05-02T10:08:33;6.50;;;1.97;;
68256;SDS011;55069;51.568;4.656;2023-05-02T10:11:02;6.38;;;1.90;;
68256;SDS011;55069;51.568;4.656;2023-05-02T10:13:31;8.07;;;2.20;;
68256;SDS011;55069;51.568;4.656;2023-05-02T10:15:59;8.48;;;1.80;;
68256;SDS011;55069;51.568;4.656;2023-05-02T10:18:28;8.32;;;1.85;;
68256;SDS011;55069;51.568;4.656;2023-05-02T10:20:58;7.07;;;2.00;;
68256;SDS011;55069;51.568;4.656;2023-05-02T10:23:28;8.25;;;2.00;;
68256;SDS011;55069;51.568;4.656;2023-05-02T10:25:55;7.95;;;2.28;;
68256;SDS011;55069;51.568;4.656;2023-05-02T10:28:23;6.55;;;2.00;;
68256;SDS011;55069;51.568;4.656;2023-05-02T10:30:50;6.88;;;2.17;;
68256;SDS011;55069;51.568;4.656;2023-05-02T10:33:17;8.57;;;2.10;;
68256;SDS011;55069;51.568;4.656;2023-05-02T10:35:45;11.70;;;2.67;;
68256;SDS011;55069;51.568;4.656;2023-05-02T10:38:20;9.18;;;1.92;;
68256;SDS011;55069;51.568;4.656;2023-05-02T10:40:48;7.53;;;2.10;;
68256;SDS011;55069;51.568;4.656;2023-05-02T10:43:23;4.90;;;2.00;;
68256;SDS011;55069;51.568;4.656;2023-05-02T10:45:51;8.53;;;2.40;;
68256;SDS011;55069;51.568;4.656;2023-05-02T10:48:19;11.32;;;2.25;;
68256;SDS011;55069;51.568;4.656;2023-05-02T10:50:50;5.75;;;1.80;;
68256;SDS011;55069;51.568;4.656;2023-05-02T10:53:23;10.48;;;2.42;;
68256;SDS011;55069;51.568;4.656;2023-05-02T10:56:10;9.02;;;1.88;;
68256;SDS011;55069;51.568;4.656;2023-05-02T10:58:40;6.27;;;1.97;;
68256;SDS011;55069;51.568;4.656;2023-05-02T11:04:01;8.40;;;2.28;;
68256;SDS011;55069;51.568;4.656;2023-05-02T11:06:29;10.32;;;2.00;;
68256;SDS011;55069;51.568;4.656;2023-05-02T11:09:31;9.40;;;2.30;;
68256;SDS011;55069;51.568;4.656;2023-05-02T11:11:56;6.93;;;2.00;;
68256;SDS011;55069;51.568;4.656;2023-05-02T11:19:25;9.07;;;2.20;;
68256;SDS011;55069;51.568;4.656;2023-05-02T11:21:52;9.50;;;2.63;;
68256;SDS011;55069;51.568;4.656;2023-05-02T11:30:00;6.50;;;2.20;;
68256;SDS011;55069;51.568;4.656;2023-05-02T11:35:26;5.68;;;1.80;;
68256;SDS011;55069;51.568;4.656;2023-05-02T11:37:55;9.27;;;2.23;;
68256;SDS011;55069;51.568;4.656;2023-05-02T11:40:22;10.35;;;2.42;;
68256;SDS011;55069;51.568;4.656;2023-05-02T11:42:49;8.07;;;2.40;;
68256;SDS011;55069;51.568;4.656;2023-05-02T11:45:15;6.13;;;2.20;;
68256;SDS011;55069;51.568;4.656;2023-05-02T11:47:41;6.90;;;2.53;;
68256;SDS011;55069;51.568;4.656;2023-05-02T11:50:08;6.32;;;2.10;;
68256;SDS011;55069;51.568;4.656;2023-05-02T11:52:37;6.40;;;2.40;;
68256;SDS011;55069;51.568;4.656;2023-05-02T11:55:05;9.47;;;2.60;;
68256;SDS011;55069;51.568;4.656;2023-05-02T11:57:34;6.25;;;2.30;;
68256;SDS011;55069;51.568;4.656;2023-05-02T12:00:00;4.97;;;2.20;;
68256;SDS011;55069;51.568;4.656;2023-05-02T12:02:39;8.38;;;2.55;;
68256;SDS011;55069;51.568;4.656;2023-05-02T12:05:07;5.53;;;2.27;;
68256;SDS011;55069;51.568;4.656;2023-05-02T12:07:42;8.80;;;2.65;;
68256;SDS011;55069;51.568;4.656;2023-05-02T12:10:09;7.63;;;2.33;;
68256;SDS011;55069;51.568;4.656;2023-05-02T12:12:36;7.45;;;2.70;;
68256;SDS011;55069;51.568;4.656;2023-05-02T12:15:04;7.22;;;2.60;;
68256;SDS011;55069;51.568;4.656;2023-05-02T12:17:41;8.37;;;2.47;;
68256;SDS011;55069;51.568;4.656;2023-05-02T12:20:13;8.13;;;2.63;;
68256;SDS011;55069;51.568;4.656;2023-05-02T12:22:40;7.90;;;2.03;;
68256;SDS011;55069;51.568;4.656;2023-05-02T12:25:06;6.85;;;2.47;;
68256;SDS011;55069;51.568;4.656;2023-05-02T12:27:32;8.15;;;2.95;;
68256;SDS011;55069;51.568;4.656;2023-05-02T12:29:58;7.80;;;2.23;;
68256;SDS011;55069;51.568;4.656;2023-05-02T12:32:32;6.50;;;2.65;;
68256;SDS011;55069;51.568;4.656;2023-05-02T12:34:59;8.38;;;2.67;;
68256;SDS011;55069;51.568;4.656;2023-05-02T12:37:26;7.05;;;2.38;;
68256;SDS011;55069;51.568;4.656;2023-05-02T12:39:53;8.30;;;2.58;;
68256;SDS011;55069;51.568;4.656;2023-05-02T12:42:20;6.27;;;2.70;;
68256;SDS011;55069;51.568;4.656;2023-05-02T12:44:49;7.68;;;2.53;;
68256;SDS011;55069;51.568;4.656;2023-05-02T12:47:18;7.40;;;2.47;;
68256;SDS011;55069;51.568;4.656;2023-05-02T12:49:53;8.27;;;2.40;;
68256;SDS011;55069;51.568;4.656;2023-05-02T12:57:41;5.32;;;2.72;;
68256;SDS011;55069;51.568;4.656;2023-05-02T13:00:07;10.55;;;2.78;;
68256;SDS011;55069;51.568;4.656;2023-05-02T13:02:34;10.47;;;2.67;;
68256;SDS011;55069;51.568;4.656;2023-05-02T13:04:59;8.65;;;2.92;;
68256;SDS011;55069;51.568;4.656;2023-05-02T13:07:25;7.93;;;2.60;;
68256;SDS011;55069;51.568;4.656;2023-05-02T13:09:50;6.15;;;2.60;;
68256;SDS011;55069;51.568;4.656;2023-05-02T13:12:16;7.60;;;2.93;;
68256;SDS011;55069;51.568;4.656;2023-05-02T13:14:42;5.60;;;3.05;;
68256;SDS011;55069;51.568;4.656;2023-05-02T13:17:08;7.32;;;2.75;;
68256;SDS011;55069;51.568;4.656;2023-05-02T13:19:35;8.43;;;3.20;;
68256;SDS011;55069;51.568;4.656;2023-05-02T13:22:00;9.95;;;3.20;;
68256;SDS011;55069;51.568;4.656;2023-05-02T13:24:26;6.50;;;3.47;;
68256;SDS011;55069;51.568;4.656;2023-05-02T13:26:52;6.30;;;2.80;;
68256;SDS011;55069;51.568;4.656;2023-05-02T13:29:17;11.73;;;2.97;;
68256;SDS011;55069;51.568;4.656;2023-05-02T13:31:43;8.82;;;3.20;;
68256;SDS011;55069;51.568;4.656;2023-05-02T13:34:09;10.50;;;3.20;;
68256;SDS011;55069;51.568;4.656;2023-05-02T13:36:35;5.80;;;2.55;;
68256;SDS011;55069;51.568;4.656;2023-05-02T13:39:04;9.60;;;3.35;;
68256;SDS011;55069;51.568;4.656;2023-05-02T13:41:30;7.00;;;3.30;;
68256;SDS011;55069;51.568;4.656;2023-05-02T13:43:56;7.40;;;3.13;;
68256;SDS011;55069;51.568;4.656;2023-05-02T13:46:22;8.80;;;3.33;;
68256;SDS011;55069;51.568;4.656;2023-05-02T13:48:48;9.38;;;3.00;;
68256;SDS011;55069;51.568;4.656;2023-05-02T13:51:13;10.47;;;3.53;;
68256;SDS011;55069;51.568;4.656;2023-05-02T13:53:39;9.55;;;3.63;;
68256;SDS011;55069;51.568;4.656;2023-05-02T13:56:05;8.18;;;3.40;;
68256;SDS011;55069;51.568;4.656;2023-05-02T13:58:30;6.60;;;2.83;;
68256;SDS011;55069;51.568;4.656;2023-05-02T14:00:56;10.13;;;3.33;;
68256;SDS011;55069;51.568;4.656;2023-05-02T14:03:22;6.32;;;2.85;;
68256;SDS011;55069;51.568;4.656;2023-05-02T14:05:48;9.33;;;3.77;;
68256;SDS011;55069;51.568;4.656;2023-05-02T14:08:13;5.95;;;3.10;;
68256;SDS011;55069;51.568;4.656;2023-05-02T14:10:42;6.35;;;2.90;;
68256;SDS011;55069;51.568;4.656;2023-05-02T14:13:08;8.10;;;3.27;;
68256;SDS011;55069;51.568;4.656;2023-05-02T14:15:34;9.95;;;3.92;;
68256;SDS011;55069;51.568;4.656;2023-05-02T14:18:01;6.18;;;3.17;;
68256;SDS011;55069;51.568;4.656;2023-05-02T14:20:27;9.63;;;3.58;;
68256;SDS011;55069;51.568;4.656;2023-05-02T14:22:53;9.70;;;3.20;;
68256;SDS011;55069;51.568;4.656;2023-05-02T14:25:19;8.25;;;3.65;;
68256;SDS011;55069;51.568;4.656;2023-05-02T14:27:45;7.93;;;3.53;;
68256;SDS011;55069;51.568;4.656;2023-05-02T14:30:11;8.00;;;3.60;;
68256;SDS011;55069;51.568;4.656;2023-05-02T14:32:37;12.50;;;3.60;;
68256;SDS011;55069;51.568;4.656;2023-05-02T14:35:03;9.07;;;3.83;;
68256;SDS011;55069;51.568;4.656;2023-05-02T14:37:29;8.18;;;3.53;;
68256;SDS011;55069;51.568;4.656;2023-05-02T14:39:55;6.85;;;3.60;;
68256;SDS011;55069;51.568;4.656;2023-05-02T14:42:23;10.47;;;3.83;;
68256;SDS011;55069;51.568;4.656;2023-05-02T14:44:49;8.23;;;3.33;;
68256;SDS011;55069;51.568;4.656;2023-05-02T14:47:16;9.70;;;3.53;;
68256;SDS011;55069;51.568;4.656;2023-05-02T14:49:41;11.20;;;3.40;;
68256;SDS011;55069;51.568;4.656;2023-05-02T14:52:07;7.53;;;3.60;;
68256;SDS011;55069;51.568;4.656;2023-05-02T14:54:33;10.98;;;3.80;;
68256;SDS011;55069;51.568;4.656;2023-05-02T14:56:58;9.70;;;4.30;;
68256;SDS011;55069;51.568;4.656;2023-05-02T14:59:27;6.45;;;3.42;;
68256;SDS011;55069;51.568;4.656;2023-05-02T15:01:53;11.77;;;3.70;;
68256;SDS011;55069;51.568;4.656;2023-05-02T15:04:19;7.88;;;3.50;;
68256;SDS011;55069;51.568;4.656;2023-05-02T15:06:45;8.80;;;4.40;;
68256;SDS011;55069;51.568;4.656;2023-05-02T15:09:12;14.75;;;4.18;;
68256;SDS011;55069;51.568;4.656;2023-05-02T15:11:39;11.35;;;3.90;;
68256;SDS011;55069;51.568;4.656;2023-05-02T15:14:04;10.77;;;3.50;;
68256;SDS011;55069;51.568;4.656;2023-05-02T15:16:30;10.23;;;3.50;;
68256;SDS011;55069;51.568;4.656;2023-05-02T15:18:56;9.20;;;3.55;;
68256;SDS011;55069;51.568;4.656;2023-05-02T15:21:22;6.78;;;3.72;;
68256;SDS011;55069;51.568;4.656;2023-05-02T15:23:48;10.23;;;3.58;;
68256;SDS011;55069;51.568;4.656;2023-05-02T15:26:13;10.27;;;4.28;;
68256;SDS011;55069;51.568;4.656;2023-05-02T15:28:39;11.73;;;3.25;;
68256;SDS011;55069;51.568;4.656;2023-05-02T15:31:05;7.40;;;3.60;;
68256;SDS011;55069;51.568;4.656;2023-05-02T15:33:30;8.85;;;3.45;;